Startpagina
METAR-TAF:

METAR-TAF

Vliegvelden :

Bandar Lengeh, Iran

breedte: 26-35N, lengte: 054-50E, hoogte: 14 m

Actueel weer

Dit bericht is 55 minuten geleden gemaakt, om 06:00 UTC
Wind 4 kt uit het zuidzuidoosten
Temperatuur 35°C
Vochtigheid 67%
Druk 1001 hPa
Zicht: 4000 m
Weinig wolken op 3000 ft
Heiigheid

METAR: OIBL 170600Z 15004KT 4000 HZ FEW030 35/28 Q1001

Tijdstip: 11:25 (06:55 UTC)


TAF: ontbreekt

Waarnemingen en weersverwachtingen van meer dan 4000 vliegvelden (METAR en TAF).

De beschikbare stations zijn de gele en rode punten op de kaart.

Ga met uw muis naar het station om de naam te zien.

Klik dan om waarnemingen en weersverwachtingen te zien.

kaart wijzigen: klik op de groene knoppen met een zwart kruis om in te zoomen, op de groene knop met een streepje om uit te zoomen of op de groene pijlen voor aangrenzende kaarten.


METAR-TAF: